Time;durP1;ratioP1;P1;durP2;ratioP2;P2;SDS_P1;SDS_P2;PMS_P1;PMS_P2;Temp;Humidity;BMP_temperature;BMP_pressure;BME280_temperature;BME280_humidity;BME280_pressure;Samples;Min_cycle;Max_cycle;Signal;HPM_P1;HPM_P2
2020/12/22 00:02:15;;;;;;;1.70;1.60;;;10.30;99.90;;;;;;5028702;28;20217;-90
2020/12/22 00:04:41;;;;;;;1.83;1.63;;;10.30;99.90;;;;;;5028524;28;20304;-91
2020/12/22 00:07:06;;;;;;;1.50;1.40;;;10.30;99.90;;;;;;5028293;28;20645;-91
2020/12/22 00:09:32;;;;;;;1.57;1.47;;;10.30;99.90;;;;;;5009923;28;20196;-90
2020/12/22 00:11:58;;;;;;;2.03;1.70;;;10.30;99.90;;;;;;5010504;28;20668;-91
2020/12/22 00:14:24;;;;;;;1.73;1.63;;;10.30;99.90;;;;;;5028167;28;20181;-90
2020/12/22 00:16:49;;;;;;;1.63;1.53;;;10.50;99.90;;;;;;5026550;28;20336;-91
2020/12/22 00:19:15;;;;;;;2.20;1.40;;;10.40;99.90;;;;;;5026788;28;20253;-90
2020/12/22 00:21:41;;;;;;;1.40;1.30;;;10.50;99.90;;;;;;5026409;28;20232;-91
2020/12/22 00:24:07;;;;;;;2.43;1.40;;;10.60;99.90;;;;;;5028117;28;20264;-91
2020/12/22 00:26:32;;;;;;;1.60;1.50;;;10.60;99.20;;;;;;5024874;28;20177;-90
2020/12/22 00:28:58;;;;;;;1.57;1.47;;;10.70;99.40;;;;;;5025596;28;20178;-91
2020/12/22 00:31:24;;;;;;;1.40;1.30;;;10.70;98.70;;;;;;5011272;28;20272;-91
2020/12/22 00:33:55;;;;;;;2.63;1.70;;;10.90;97.50;;;;;;5006540;28;20202;-91
2020/12/22 00:36:21;;;;;;;1.67;1.57;;;10.80;98.40;;;;;;5006462;28;20197;-91
2020/12/22 00:38:47;;;;;;;1.50;1.40;;;10.70;98.90;;;;;;5006985;28;20186;-90
2020/12/22 00:41:14;;;;;;;1.40;1.40;;;10.80;98.30;;;;;;5020301;28;20238;-90
2020/12/22 00:43:41;;;;;;;2.07;1.53;;;10.90;97.30;;;;;;5025504;28;20178;-90
2020/12/22 00:46:07;;;;;;;1.23;1.23;;;10.90;96.90;;;;;;5025984;28;20194;-90
2020/12/22 00:48:33;;;;;;;1.60;1.50;;;11.00;96.00;;;;;;5024516;28;20186;-91
2020/12/22 00:50:59;;;;;;;1.30;1.20;;;11.00;96.40;;;;;;5023485;28;20190;-90
2020/12/22 00:53:24;;;;;;;1.53;1.20;;;11.00;96.00;;;;;;5033023;28;20209;-89
2020/12/22 00:55:50;;;;;;;1.50;1.40;;;11.10;95.50;;;;;;5021553;28;20210;-90
2020/12/22 00:58:16;;;;;;;1.37;1.37;;;11.10;95.40;;;;;;5026749;28;20194;-90
2020/12/22 01:00:41;;;;;;;1.57;1.47;;;11.10;95.70;;;;;;5019111;28;20657;-90
2020/12/22 01:03:07;;;;;;;1.50;1.40;;;11.10;95.40;;;;;;5018899;28;20202;-89
2020/12/22 01:05:33;;;;;;;1.30;1.30;;;11.10;95.60;;;;;;5017613;28;20234;-91
2020/12/22 01:07:59;;;;;;;1.63;1.27;;;11.10;94.40;;;;;;4989012;28;20190;-90
2020/12/22 01:10:24;;;;;;;1.30;1.20;;;11.20;94.80;;;;;;5004791;28;20194;-90
2020/12/22 01:12:52;;;;;;;1.73;1.20;;;11.30;94.30;;;;;;5006275;28;20289;-90
2020/12/22 01:15:18;;;;;;;4.27;1.47;;;11.40;93.40;;;;;;5006381;28;20186;-90
2020/12/22 01:17:43;;;;;;;1.47;1.37;;;11.40;93.00;;;;;;5007797;28;20193;-90
2020/12/22 01:20:09;;;;;;;2.37;1.30;;;11.40;92.80;;;;;;5009614;28;20247;-90
2020/12/22 01:22:35;;;;;;;1.80;1.40;;;11.50;92.60;;;;;;5025256;28;20208;-90
2020/12/22 01:25:00;;;;;;;1.20;1.00;;;11.70;92.10;;;;;;5024187;28;20174;-90
2020/12/22 01:27:26;;;;;;;1.23;1.13;;;11.70;91.50;;;;;;5024571;28;20189;-90
2020/12/22 01:29:51;;;;;;;1.23;1.13;;;11.70;91.50;;;;;;5022717;28;20197;-91
2020/12/22 01:32:17;;;;;;;2.30;1.30;;;11.60;92.90;;;;;;5002337;28;20220;-91
2020/12/22 01:34:42;;;;;;;1.33;1.20;;;11.60;92.90;;;;;;5001316;28;20190;-90
2020/12/22 01:37:12;;;;;;;1.40;1.20;;;11.60;93.50;;;;;;5001073;28;20202;-90
2020/12/22 01:39:38;;;;;;;1.20;1.00;;;11.60;93.20;;;;;;5001846;28;20174;-90
2020/12/22 01:42:10;;;;;;;1.20;1.10;;;11.70;92.50;;;;;;5003951;28;20225;-90
2020/12/22 01:44:37;;;;;;;1.20;1.10;;;11.90;91.00;;;;;;5002852;28;20190;-90
2020/12/22 01:47:03;;;;;;;1.30;1.30;;;11.80;91.40;;;;;;5002855;28;20209;-90
2020/12/22 01:49:28;;;;;;;1.13;1.13;;;11.90;91.80;;;;;;5015695;28;20196;-90
2020/12/22 01:51:58;;;;;;;1.20;1.20;;;11.80;93.40;;;;;;5023229;28;20236;-90
2020/12/22 01:54:26;;;;;;;1.63;1.40;;;11.70;93.80;;;;;;5024496;28;20239;-90
2020/12/22 01:56:52;;;;;;;1.10;1.10;;;11.70;93.30;;;;;;5023157;28;20827;-90
2020/12/22 01:59:18;;;;;;;2.23;1.17;;;11.80;93.10;;;;;;5024632;28;20178;-90
2020/12/22 02:01:44;;;;;;;1.33;1.23;;;11.80;92.20;;;;;;5024604;28;20280;-90
2020/12/22 02:04:11;;;;;;;1.03;1.03;;;11.90;93.30;;;;;;5024000;28;20170;-90
2020/12/22 02:06:37;;;;;;;1.23;1.17;;;11.80;93.40;;;;;;5024633;28;20178;-90
2020/12/22 02:09:10;;;;;;;1.10;1.10;;;11.90;93.40;;;;;;5025251;28;20331;-90
2020/12/22 02:11:38;;;;;;;0.93;0.93;;;11.80;93.40;;;;;;5007474;28;20264;-90
2020/12/22 02:14:05;;;;;;;0.90;0.90;;;11.70;95.50;;;;;;5024339;28;20251;-90
2020/12/22 02:16:31;;;;;;;1.53;1.10;;;11.70;93.80;;;;;;5023817;28;20259;-90
2020/12/22 02:18:58;;;;;;;1.00;1.00;;;11.70;93.60;;;;;;5023241;28;20184;-90
2020/12/22 02:21:23;;;;;;;1.00;1.00;;;11.80;93.10;;;;;;5023466;28;20184;-89
2020/12/22 02:23:51;;;;;;;1.00;1.00;;;11.80;93.80;;;;;;5023780;28;20182;-90
2020/12/22 02:26:21;;;;;;;1.10;1.10;;;11.80;94.40;;;;;;5024921;28;20193;-90
2020/12/22 02:28:47;;;;;;;1.67;1.17;;;11.80;95.70;;;;;;5021380;28;20232;-90
2020/12/22 02:31:13;;;;;;;1.20;1.17;;;11.60;96.90;;;;;;5002829;28;20186;-90
2020/12/22 02:33:39;;;;;;;1.10;1.10;;;11.70;96.90;;;;;;5003022;28;20205;-90
2020/12/22 02:36:12;;;;;;;1.13;1.10;;;11.70;96.60;;;;;;5003676;28;20230;-90
2020/12/22 02:38:39;;;;;;;1.10;1.10;;;11.60;97.80;;;;;;5004722;28;20162;-90
2020/12/22 02:41:05;;;;;;;0.90;0.90;;;11.60;96.70;;;;;;5004517;28;20188;-91
2020/12/22 02:43:31;;;;;;;1.10;1.10;;;11.70;96.10;;;;;;5004338;28;20254;-90
2020/12/22 02:45:57;;;;;;;2.20;1.20;;;11.80;95.90;;;;;;5004450;28;20189;-91
2020/12/22 02:48:23;;;;;;;1.70;1.30;;;11.80;95.00;;;;;;4988998;28;20193;-91
2020/12/22 02:50:49;;;;;;;0.90;0.90;;;11.80;95.30;;;;;;5027571;28;20177;-88
2020/12/22 02:53:15;;;;;;;0.90;0.90;;;11.80;95.90;;;;;;5028387;28;20198;-88
2020/12/22 02:55:40;;;;;;;1.10;1.10;;;11.70;96.30;;;;;;5010994;28;20209;-89
2020/12/22 02:58:06;;;;;;;1.27;1.20;;;11.80;97.40;;;;;;5026802;28;20186;-89
2020/12/22 03:00:32;;;;;;;1.47;1.00;;;11.80;96.60;;;;;;5009916;28;20178;-89
2020/12/22 03:02:58;;;;;;;1.20;1.20;;;11.70;97.30;;;;;;5006819;28;20285;-88
2020/12/22 03:05:23;;;;;;;1.47;1.10;;;11.70;98.00;;;;;;5006728;28;20266;-89
2020/12/22 03:07:49;;;;;;;1.43;1.10;;;11.60;98.10;;;;;;4990167;28;20633;-89
2020/12/22 03:10:17;;;;;;;1.10;1.00;;;11.60;98.00;;;;;;5005187;28;20184;-89
2020/12/22 03:12:43;;;;;;;1.07;1.07;;;11.80;96.40;;;;;;5004631;28;20195;-89
2020/12/22 03:15:10;;;;;;;1.03;1.03;;;11.80;96.50;;;;;;5005112;28;20171;-89
2020/12/22 03:17:37;;;;;;;1.00;1.00;;;11.90;95.80;;;;;;5005004;28;20237;-88
2020/12/22 03:20:08;;;;;;;1.30;1.07;;;11.90;94.90;;;;;;5019467;28;20552;-89
2020/12/22 03:22:35;;;;;;;0.93;0.93;;;12.10;94.40;;;;;;5027192;28;20201;-88
2020/12/22 03:25:01;;;;;;;1.50;1.40;;;12.00;94.20;;;;;;5026407;28;20213;-89
2020/12/22 03:27:27;;;;;;;1.00;1.00;;;12.10;93.90;;;;;;5025822;28;20273;-89
2020/12/22 03:29:52;;;;;;;1.00;1.00;;;12.10;94.10;;;;;;4997566;28;20270;-89
2020/12/22 03:32:18;;;;;;;1.00;1.00;;;12.00;94.30;;;;;;5009713;28;20190;-89
2020/12/22 03:34:44;;;;;;;1.27;1.10;;;12.00;94.00;;;;;;5021351;28;20235;-90
2020/12/22 03:37:10;;;;;;;1.10;1.10;;;12.20;93.10;;;;;;5010300;28;20336;-88
2020/12/22 03:39:35;;;;;;;0.90;0.90;;;12.20;92.90;;;;;;5015462;28;20185;-88
2020/12/22 03:42:01;;;;;;;1.33;1.20;;;12.20;93.10;;;;;;5037883;28;20291;-89
2020/12/22 03:44:27;;;;;;;1.20;1.20;;;12.10;93.20;;;;;;5040200;28;20169;-89
2020/12/22 03:46:52;;;;;;;0.90;0.90;;;12.20;92.60;;;;;;5027677;28;20605;-89
2020/12/22 03:49:18;;;;;;;1.10;1.10;;;12.30;91.50;;;;;;5025924;28;20254;-89
2020/12/22 03:51:45;;;;;;;1.10;1.10;;;12.40;91.00;;;;;;5024038;28;20205;-89
2020/12/22 03:54:14;;;;;;;0.90;0.90;;;12.40;91.10;;;;;;5025740;28;20174;-89
2020/12/22 03:56:40;;;;;;;0.93;0.93;;;12.40;91.20;;;;;;5025092;28;20210;-89
2020/12/22 03:59:05;;;;;;;1.10;1.00;;;12.40;91.80;;;;;;5019918;28;20262;-88
2020/12/22 04:01:31;;;;;;;1.00;1.00;;;12.40;92.30;;;;;;5005628;28;20599;-89
2020/12/22 04:03:57;;;;;;;0.83;0.83;;;12.40;93.00;;;;;;5005580;28;20201;-88
2020/12/22 04:06:23;;;;;;;0.90;0.90;;;12.30;93.10;;;;;;5004396;28;20179;-89
2020/12/22 04:08:52;;;;;;;1.00;1.00;;;12.30;92.80;;;;;;5005087;28;20185;-89
2020/12/22 04:11:18;;;;;;;1.43;1.37;;;12.30;93.60;;;;;;5005643;28;20297;-89
2020/12/22 04:13:44;;;;;;;1.00;1.00;;;12.30;93.10;;;;;;5006301;28;20178;-89
2020/12/22 04:16:09;;;;;;;1.77;1.20;;;12.30;94.00;;;;;;5004857;28;20225;-89
2020/12/22 04:18:35;;;;;;;1.00;1.00;;;12.30;94.20;;;;;;4988192;28;20186;-89
2020/12/22 04:21:01;;;;;;;1.77;1.20;;;12.20;94.60;;;;;;5024516;28;20469;-89
2020/12/22 04:23:27;;;;;;;0.93;0.93;;;12.30;94.10;;;;;;5024208;28;20205;-89
2020/12/22 04:25:53;;;;;;;1.00;1.00;;;12.40;93.70;;;;;;5007864;28;20192;-89
2020/12/22 04:28:18;;;;;;;1.57;0.93;;;12.30;94.80;;;;;;5025908;28;20216;-89
2020/12/22 04:30:44;;;;;;;1.00;1.00;;;12.20;97.40;;;;;;5023073;28;20194;-89
2020/12/22 04:33:11;;;;;;;1.30;1.20;;;12.20;97.80;;;;;;5025701;28;20217;-89
2020/12/22 04:35:37;;;;;;;0.80;0.80;;;12.10;99.20;;;;;;5024263;28;20190;-89
2020/12/22 04:38:04;;;;;;;0.90;0.90;;;12.00;99.30;;;;;;5015995;28;20194;-88
2020/12/22 04:40:33;;;;;;;1.20;1.10;;;11.90;99.90;;;;;;5003305;28;20254;-88
2020/12/22 04:43:00;;;;;;;1.80;1.10;;;11.90;99.90;;;;;;5001285;28;20657;-89
2020/12/22 04:45:27;;;;;;;0.90;0.90;;;11.80;99.90;;;;;;5002598;28;20273;-88
2020/12/22 04:47:55;;;;;;;1.23;0.90;;;11.90;99.90;;;;;;5001988;28;20182;-90
2020/12/22 04:50:20;;;;;;;1.57;1.00;;;12.00;99.90;;;;;;5002739;28;20270;-89
2020/12/22 04:52:47;;;;;;;1.00;1.00;;;12.00;99.90;;;;;;5002792;28;20236;-88
2020/12/22 04:55:14;;;;;;;1.00;1.00;;;11.90;99.90;;;;;;5002356;28;20191;-89
2020/12/22 04:57:49;;;;;;;1.00;1.00;;;11.90;99.90;;;;;;5006125;28;20209;-90
2020/12/22 05:00:20;;;;;;;3.53;1.00;;;12.00;99.90;;;;;;5022333;28;20180;-90
2020/12/22 05:02:49;;;;;;;1.20;1.10;;;12.00;99.90;;;;;;5021433;28;20217;-90
2020/12/22 05:05:14;;;;;;;1.13;1.10;;;12.00;99.90;;;;;;5021786;28;20185;-89
2020/12/22 05:07:40;;;;;;;1.00;1.00;;;12.10;99.60;;;;;;5023200;28;20173;-90
2020/12/22 05:10:11;;;;;;;1.13;1.13;;;12.10;99.50;;;;;;5021769;28;20220;-90
2020/12/22 05:12:41;;;;;;;1.00;1.00;;;12.00;99.80;;;;;;5021996;28;20240;-90
2020/12/22 05:15:08;;;;;;;3.53;1.10;;;12.10;98.80;;;;;;5021428;28;20193;-90
2020/12/22 05:17:42;;;;;;;1.00;1.00;;;12.20;97.10;;;;;;5003804;28;20210;-90
2020/12/22 05:20:12;;;;;;;2.67;1.23;;;12.20;96.90;;;;;;5020117;28;20273;-90
2020/12/22 05:22:38;;;;;;;0.90;0.90;;;12.30;97.90;;;;;;5020087;28;20194;-89
2020/12/22 05:25:05;;;;;;;1.80;1.10;;;12.20;98.50;;;;;;5002499;28;20198;-90
2020/12/22 05:27:31;;;;;;;0.90;0.90;;;12.20;98.20;;;;;;5002390;28;20712;-89
2020/12/22 05:30:00;;;;;;;0.90;0.90;;;12.30;96.80;;;;;;5003130;28;20186;-90
2020/12/22 05:32:26;;;;;;;1.00;1.00;;;12.30;96.70;;;;;;5019398;28;20209;-89
2020/12/22 05:34:53;;;;;;;1.10;1.10;;;12.40;95.90;;;;;;5021514;28;20182;-90
2020/12/22 05:37:24;;;;;;;1.80;1.20;;;12.50;95.40;;;;;;5023250;28;20202;-90
2020/12/22 05:39:50;;;;;;;1.00;1.00;;;12.40;96.30;;;;;;5024755;28;20469;-90
2020/12/22 05:42:17;;;;;;;0.90;0.90;;;12.40;94.70;;;;;;5027454;28;20189;-89
2020/12/22 05:44:50;;;;;;;1.00;1.00;;;12.50;94.90;;;;;;5026155;28;20189;-89
2020/12/22 05:47:19;;;;;;;1.10;1.10;;;12.50;94.50;;;;;;5025508;28;20178;-89
2020/12/22 05:49:55;;;;;;;1.10;1.10;;;12.60;94.80;;;;;;5026535;28;20196;-89
2020/12/22 05:52:22;;;;;;;1.17;1.17;;;12.60;93.70;;;;;;5025389;28;20201;-88
2020/12/22 05:54:56;;;;;;;1.13;1.00;;;12.60;92.80;;;;;;5024844;28;20648;-87
2020/12/22 05:57:29;;;;;;;0.90;0.90;;;12.70;92.20;;;;;;5024917;28;20275;-88
2020/12/22 05:59:57;;;;;;;1.50;1.00;;;12.70;91.50;;;;;;5024551;28;20257;-88
2020/12/22 06:02:27;;;;;;;1.10;1.10;;;12.90;90.30;;;;;;5024023;28;20215;-86
2020/12/22 06:04:54;;;;;;;0.90;0.90;;;12.80;90.10;;;;;;5024026;28;20264;-87
2020/12/22 06:07:20;;;;;;;1.00;1.00;;;12.90;89.30;;;;;;5029257;28;20213;-88
2020/12/22 06:09:46;;;;;;;1.07;0.93;;;13.00;89.30;;;;;;5029664;28;20193;-87
2020/12/22 06:12:12;;;;;;;1.20;1.10;;;13.00;89.10;;;;;;5025761;28;20210;-87
2020/12/22 06:14:42;;;;;;;1.07;1.07;;;13.00;89.30;;;;;;5037871;28;20197;-88
2020/12/22 06:17:10;;;;;;;1.20;1.10;;;13.10;87.80;;;;;;5031013;28;20240;-88
2020/12/22 06:19:37;;;;;;;1.00;1.00;;;13.10;88.30;;;;;;5024915;28;20236;-87
2020/12/22 06:22:03;;;;;;;1.50;1.20;;;13.20;87.90;;;;;;5029097;28;20257;-88
2020/12/22 06:24:30;;;;;;;1.10;1.10;;;13.20;87.10;;;;;;5038035;28;20182;-88
2020/12/22 06:27:03;;;;;;;2.60;1.43;;;13.10;88.20;;;;;;5031686;28;20181;-87
2020/12/22 06:29:29;;;;;;;1.03;1.03;;;13.20;87.60;;;;;;5023855;28;20193;-88
2020/12/22 06:32:06;;;;;;;1.10;1.10;;;13.10;87.70;;;;;;5031827;28;20231;-88
2020/12/22 06:34:32;;;;;;;0.90;0.90;;;13.20;87.60;;;;;;5024997;28;20182;-88
2020/12/22 06:37:02;;;;;;;1.60;1.00;;;13.10;89.70;;;;;;5006729;28;20668;-88
2020/12/22 06:39:48;;;;;;;1.00;1.00;;;13.00;91.30;;;;;;5024009;28;20183;-88
2020/12/22 06:42:29;;;;;;;1.70;1.10;;;12.90;91.80;;;;;;5003326;28;20273;-89
2020/12/22 06:44:55;;;;;;;1.17;1.07;;;13.00;90.70;;;;;;5003425;28;20202;-88
2020/12/22 06:47:34;;;;;;;0.97;0.97;;;12.90;91.80;;;;;;5028994;28;20183;-87
2020/12/22 06:50:00;;;;;;;1.10;1.10;;;12.70;93.50;;;;;;5027813;28;20174;-88
2020/12/22 06:52:46;;;;;;;1.10;1.03;;;12.70;94.10;;;;;;5023195;28;20217;-88
2020/12/22 06:55:12;;;;;;;1.03;1.00;;;12.70;95.00;;;;;;5023823;28;20204;-88
2020/12/22 06:57:50;;;;;;;1.20;1.20;;;12.60;96.00;;;;;;5041488;28;20686;-89
2020/12/22 07:00:29;;;;;;;3.40;1.20;;;12.60;97.10;;;;;;5037277;28;20181;-88
2020/12/22 07:03:22;;;;;;;1.10;1.00;;;12.50;98.70;;;;;;5041585;28;20278;-88
2020/12/22 07:05:49;;;;;;;1.00;1.00;;;12.50;99.60;;;;;;5005248;28;20167;-88
2020/12/22 07:08:17;;;;;;;2.03;1.00;;;12.40;99.90;;;;;;5001821;28;20198;-88
2020/12/22 07:10:50;;;;;;;0.97;0.97;;;12.30;99.90;;;;;;5028461;28;20181;-87
2020/12/22 07:13:17;;;;;;;1.00;1.00;;;12.20;99.90;;;;;;5040554;28;20272;-87
2020/12/22 07:15:54;;;;;;;1.00;1.00;;;12.20;99.90;;;;;;5041644;28;20177;-88
2020/12/22 07:18:38;;;;;;;1.10;1.10;;;12.10;99.90;;;;;;5012746;28;20255;-91
2020/12/22 07:21:04;;;;;;;1.00;1.00;;;12.10;99.90;;;;;;5003167;28;20286;-88
2020/12/22 07:23:30;;;;;;;1.13;1.03;;;12.10;99.90;;;;;;5034665;28;20205;-90
2020/12/22 07:25:59;;;;;;;1.00;1.00;;;12.00;99.90;;;;;;5041388;28;20189;-88
2020/12/22 07:28:25;;;;;;;1.10;1.10;;;12.00;99.90;;;;;;5037292;28;20193;-88
2020/12/22 07:30:50;;;;;;;0.90;0.90;;;12.00;99.90;;;;;;5021663;28;20233;-88
2020/12/22 07:33:19;;;;;;;1.10;1.10;;;12.00;99.90;;;;;;5020864;28;20205;-89
2020/12/22 07:35:48;;;;;;;1.80;1.10;;;12.00;99.90;;;;;;5022894;28;20552;-87
2020/12/22 07:38:14;;;;;;;1.03;1.03;;;12.00;99.90;;;;;;5025878;28;20174;-89
2020/12/22 07:40:41;;;;;;;1.10;1.10;;;11.90;99.90;;;;;;5025941;28;20178;-89
2020/12/22 07:43:11;;;;;;;1.13;1.00;;;11.90;99.90;;;;;;5024565;28;20208;-89
2020/12/22 07:45:47;;;;;;;0.93;0.93;;;11.90;99.90;;;;;;5036787;28;20185;-89
2020/12/22 07:48:13;;;;;;;1.00;1.00;;;12.00;99.90;;;;;;5025049;28;20177;-90
2020/12/22 07:50:38;;;;;;;1.00;1.00;;;12.00;99.90;;;;;;5024983;28;20623;-89
2020/12/22 07:53:04;;;;;;;1.20;1.10;;;11.90;99.90;;;;;;5026110;28;20205;-90
2020/12/22 07:55:40;;;;;;;1.10;1.10;;;12.00;99.90;;;;;;5042695;28;20196;-89
2020/12/22 07:58:07;;;;;;;1.07;1.07;;;11.90;99.90;;;;;;5045771;28;20187;-90
2020/12/22 08:00:33;;;;;;;1.00;1.00;;;11.90;99.90;;;;;;5029505;28;20185;-90
2020/12/22 08:03:16;;;;;;;1.30;1.23;;;11.90;99.90;;;;;;5030398;28;20222;-89
2020/12/22 08:06:03;;;;;;;1.10;1.10;;;11.90;99.90;;;;;;5016169;28;20180;-89
2020/12/22 08:08:28;;;;;;;1.20;1.20;;;11.90;99.90;;;;;;5026284;28;20177;-90
2020/12/22 08:10:54;;;;;;;1.10;1.10;;;11.90;99.90;;;;;;5034336;28;20204;-90
2020/12/22 08:13:26;;;;;;;1.17;1.17;;;11.90;99.90;;;;;;5042432;28;20197;-90
2020/12/22 08:15:56;;;;;;;1.17;1.17;;;11.90;99.90;;;;;;5032559;28;20542;-88
2020/12/22 08:18:29;;;;;;;1.20;1.20;;;11.90;99.90;;;;;;5025976;28;20162;-88
2020/12/22 08:20:59;;;;;;;1.43;1.03;;;11.90;99.90;;;;;;5009374;28;20758;-89
2020/12/22 08:23:26;;;;;;;1.77;1.47;;;11.90;99.90;;;;;;5038754;28;20252;-88
2020/12/22 08:25:52;;;;;;;1.20;1.10;;;12.00;99.90;;;;;;5028145;28;20178;-88
2020/12/22 08:28:23;;;;;;;1.20;1.20;;;11.90;99.90;;;;;;5025556;28;20224;-89
2020/12/22 08:30:48;;;;;;;1.17;1.17;;;11.80;99.90;;;;;;5039528;28;20181;-89
2020/12/22 08:33:18;;;;;;;1.43;1.20;;;11.90;99.90;;;;;;5027934;28;20255;-88
2020/12/22 08:35:47;;;;;;;1.33;1.23;;;11.90;99.90;;;;;;5040649;28;20200;-89
2020/12/22 08:38:24;;;;;;;1.40;1.30;;;12.00;99.90;;;;;;5042991;28;20177;-89
2020/12/22 08:40:55;;;;;;;3.17;1.57;;;12.00;99.90;;;;;;5010405;28;20185;-89
2020/12/22 08:43:24;;;;;;;1.47;1.33;;;11.90;99.90;;;;;;5033019;28;20201;-89
2020/12/22 08:45:51;;;;;;;1.40;1.30;;;11.90;99.90;;;;;;5027345;28;20282;-90
2020/12/22 08:48:17;;;;;;;1.20;1.20;;;11.90;99.90;;;;;;5022588;28;20213;-89
2020/12/22 08:50:50;;;;;;;3.90;1.50;;;11.90;99.90;;;;;;5038061;28;20555;-89
2020/12/22 08:53:17;;;;;;;1.20;1.20;;;11.90;99.90;;;;;;5039604;28;20208;-90
2020/12/22 08:55:43;;;;;;;1.30;1.30;;;11.90;99.90;;;;;;5038422;28;20166;-91
2020/12/22 08:58:08;;;;;;;1.30;1.30;;;11.90;99.90;;;;;;5035055;28;20177;-90
2020/12/22 09:00:34;;;;;;;1.87;1.30;;;11.90;99.90;;;;;;5029777;28;20193;-89
2020/12/22 09:03:03;;;;;;;3.00;1.30;;;12.00;99.90;;;;;;5038529;28;20229;-89
2020/12/22 09:05:31;;;;;;;2.40;1.50;;;11.90;99.90;;;;;;5016851;28;20190;-90
2020/12/22 09:08:03;;;;;;;2.20;1.40;;;11.90;99.90;;;;;;5037087;28;20196;-91
2020/12/22 09:10:28;;;;;;;1.80;1.40;;;11.90;99.90;;;;;;5025945;28;20218;-90
2020/12/22 09:12:54;;;;;;;1.40;1.30;;;12.00;99.90;;;;;;5028357;28;20205;-90
2020/12/22 09:15:19;;;;;;;1.57;1.47;;;12.00;99.90;;;;;;5025195;28;20271;-89
2020/12/22 09:17:45;;;;;;;1.40;1.30;;;12.10;99.90;;;;;;5022686;28;20209;-89
2020/12/22 09:20:18;;;;;;;1.50;1.40;;;12.10;99.90;;;;;;5026838;28;20240;-89
2020/12/22 09:22:45;;;;;;;1.80;1.30;;;12.10;99.90;;;;;;5003688;28;20194;-89
2020/12/22 09:25:10;;;;;;;2.20;1.53;;;12.10;99.90;;;;;;5028676;28;20552;-90
2020/12/22 09:27:38;;;;;;;1.30;1.30;;;12.10;99.90;;;;;;5021995;28;20197;-89
2020/12/22 09:30:06;;;;;;;2.40;1.43;;;12.10;99.90;;;;;;5031364;28;20204;-90
2020/12/22 09:32:32;;;;;;;1.70;1.60;;;12.20;99.90;;;;;;5021561;28;20213;-90
2020/12/22 09:34:57;;;;;;;1.50;1.40;;;12.20;99.90;;;;;;5013010;28;20580;-89
2020/12/22 09:37:25;;;;;;;2.20;1.53;;;12.20;99.90;;;;;;5023105;28;20220;-90
2020/12/22 09:39:51;;;;;;;1.57;1.47;;;12.30;99.90;;;;;;5028136;28;20213;-89
2020/12/22 09:42:18;;;;;;;2.10;1.43;;;12.30;99.90;;;;;;5039815;28;20262;-90
2020/12/22 09:44:44;;;;;;;1.50;1.40;;;12.40;99.90;;;;;;5038890;28;20213;-90
2020/12/22 09:47:10;;;;;;;2.20;1.70;;;12.50;99.90;;;;;;5038011;28;20287;-89
2020/12/22 09:49:36;;;;;;;2.13;1.43;;;12.50;99.90;;;;;;5024039;28;20189;-89
2020/12/22 09:52:02;;;;;;;1.40;1.30;;;12.40;99.90;;;;;;5041834;28;20213;-90
2020/12/22 09:54:28;;;;;;;1.93;1.80;;;12.50;99.90;;;;;;5041404;28;20177;-90
2020/12/22 09:56:55;;;;;;;1.67;1.50;;;12.40;99.90;;;;;;5035784;28;20280;-90
2020/12/22 09:59:21;;;;;;;1.57;1.43;;;12.30;99.90;;;;;;5027866;28;20186;-89
2020/12/22 10:01:48;;;;;;;1.40;1.30;;;12.30;99.90;;;;;;5026414;28;20201;-89
2020/12/22 10:04:14;;;;;;;1.67;1.30;;;12.30;99.90;;;;;;5031024;28;20180;-88
2020/12/22 10:06:40;;;;;;;2.10;1.60;;;12.20;99.90;;;;;;5031885;28;20185;-91
2020/12/22 10:09:06;;;;;;;1.40;1.33;;;12.20;99.90;;;;;;5021631;28;20182;-91
2020/12/22 10:11:33;;;;;;;1.80;1.40;;;12.20;99.90;;;;;;5031594;28;20319;-90
2020/12/22 10:13:59;;;;;;;1.37;1.27;;;12.30;99.90;;;;;;5024668;28;20205;-91
2020/12/22 10:16:25;;;;;;;1.60;1.50;;;12.30;99.90;;;;;;5025323;28;20217;-91
2020/12/22 10:18:50;;;;;;;1.60;1.50;;;12.30;99.90;;;;;;5034093;28;20186;-90
2020/12/22 10:21:18;;;;;;;1.50;1.40;;;12.30;99.90;;;;;;5029824;28;20208;-90
2020/12/22 10:23:46;;;;;;;1.60;1.50;;;12.40;99.90;;;;;;5041364;28;20177;-90
2020/12/22 10:26:17;;;;;;;2.00;1.37;;;12.30;99.90;;;;;;5029756;28;20177;-90
2020/12/22 10:28:44;;;;;;;2.00;1.50;;;12.40;99.90;;;;;;5011287;28;20194;-91
2020/12/22 10:31:18;;;;;;;2.87;1.60;;;12.40;99.90;;;;;;5033329;28;20268;-90
2020/12/22 10:33:44;;;;;;;1.30;1.30;;;12.30;99.90;;;;;;5023599;28;20195;-90
2020/12/22 10:36:16;;;;;;;1.43;1.33;;;12.40;99.90;;;;;;5026901;28;20206;-91
2020/12/22 10:38:42;;;;;;;2.87;1.50;;;12.40;99.90;;;;;;5037101;28;20192;-90
2020/12/22 10:41:08;;;;;;;2.10;1.30;;;12.40;99.90;;;;;;5028629;28;20182;-90
2020/12/22 10:43:34;;;;;;;1.57;1.47;;;12.40;99.90;;;;;;5024988;28;20203;-90
2020/12/22 10:46:01;;;;;;;1.83;1.50;;;12.40;99.90;;;;;;5022859;28;20186;-90
2020/12/22 10:48:27;;;;;;;2.00;1.50;;;12.40;99.90;;;;;;5025951;28;20285;-90
2020/12/22 10:50:53;;;;;;;1.40;1.30;;;12.50;99.90;;;;;;5027326;28;20325;-91
2020/12/22 10:53:19;;;;;;;3.07;1.43;;;12.50;99.90;;;;;;5019841;23;20237;-89
2020/12/22 10:55:45;;;;;;;1.70;1.60;;;12.50;99.90;;;;;;5004305;28;20221;-90
2020/12/22 10:58:11;;;;;;;2.20;1.70;;;12.50;99.90;;;;;;5017163;28;20181;-90
2020/12/22 11:00:37;;;;;;;1.70;1.60;;;12.50;99.90;;;;;;5023137;28;20289;-90
2020/12/22 11:03:07;;;;;;;1.57;1.47;;;12.50;99.90;;;;;;5026137;28;20260;-90
2020/12/22 11:08:19;;;;;;;2.90;2.00;;;12.60;99.90;;;;;;5025430;28;20275;-90
2020/12/22 11:10:45;;;;;;;1.90;1.60;;;12.70;99.90;;;;;;5017474;28;20189;-90
2020/12/22 11:13:10;;;;;;;1.67;1.30;;;12.70;99.90;;;;;;5010148;28;20302;-90
2020/12/22 11:15:37;;;;;;;1.60;1.50;;;12.60;99.90;;;;;;5037746;28;20284;-90
2020/12/22 11:18:03;;;;;;;1.53;1.43;;;12.60;99.90;;;;;;5031987;28;20220;-90
2020/12/22 11:20:29;;;;;;;2.07;1.40;;;12.60;99.90;;;;;;5020720;28;20715;-90
2020/12/22 11:22:54;;;;;;;1.50;1.40;;;12.60;99.90;;;;;;5034287;28;20209;-90
2020/12/22 11:25:20;;;;;;;1.80;1.40;;;12.50;99.90;;;;;;5022980;28;20205;-90
2020/12/22 11:27:46;;;;;;;1.47;1.37;;;12.50;99.90;;;;;;5027394;28;20186;-90
2020/12/22 11:30:13;;;;;;;1.60;1.50;;;12.50;99.90;;;;;;5016800;28;20189;-90
2020/12/22 11:32:40;;;;;;;4.93;1.57;;;12.50;99.90;;;;;;5025115;28;20216;-89
2020/12/22 11:35:07;;;;;;;7.83;1.80;;;12.60;99.90;;;;;;5037092;28;20202;-90
2020/12/22 11:37:33;;;;;;;1.60;1.50;;;12.60;99.90;;;;;;5036158;28;20210;-89
2020/12/22 11:39:59;;;;;;;3.33;1.43;;;12.60;99.90;;;;;;5012784;28;20186;-90
2020/12/22 11:42:25;;;;;;;1.83;1.60;;;12.60;99.90;;;;;;5033181;28;20293;-91
2020/12/22 11:44:51;;;;;;;2.03;1.50;;;12.50;99.90;;;;;;5034115;28;20269;-90
2020/12/22 11:47:16;;;;;;;2.57;1.50;;;12.50;99.90;;;;;;4999331;28;20634;-91
2020/12/22 11:49:42;;;;;;;1.67;1.57;;;12.40;99.90;;;;;;5011342;28;20191;-90
2020/12/22 11:52:10;;;;;;;2.23;1.60;;;12.60;99.90;;;;;;5019695;28;20229;-90
2020/12/22 11:54:36;;;;;;;1.43;1.43;;;12.50;99.90;;;;;;5012794;28;20202;-90
2020/12/22 11:57:03;;;;;;;2.10;1.40;;;12.50;99.90;;;;;;5023696;28;20213;-89
2020/12/22 11:59:29;;;;;;;2.87;1.60;;;12.50;99.90;;;;;;5016183;28;20202;-89
2020/12/22 12:01:55;;;;;;;1.93;1.50;;;12.50;99.90;;;;;;5013991;28;20225;-90
2020/12/22 12:04:21;;;;;;;1.50;1.40;;;12.50;99.90;;;;;;5025608;28;20206;-90
2020/12/22 12:06:47;;;;;;;1.60;1.50;;;12.60;99.90;;;;;;5011591;28;20217;-90
2020/12/22 12:09:14;;;;;;;2.40;1.63;;;12.50;99.90;;;;;;5023073;28;20988;-90
2020/12/22 12:11:46;;;;;;;1.63;1.53;;;12.60;99.90;;;;;;5020560;28;20274;-91
2020/12/22 12:14:12;;;;;;;2.13;1.60;;;12.70;99.90;;;;;;5025642;28;20174;-90
2020/12/22 12:16:38;;;;;;;1.60;1.50;;;12.70;99.90;;;;;;5027564;28;20209;-89
2020/12/22 12:19:03;;;;;;;1.73;1.63;;;12.70;99.90;;;;;;5025083;28;20190;-90
2020/12/22 12:21:29;;;;;;;2.00;1.50;;;12.80;99.90;;;;;;5014691;28;20187;-91
2020/12/22 12:23:56;;;;;;;1.30;1.30;;;12.90;99.90;;;;;;5014359;28;20191;-91
2020/12/22 12:26:26;;;;;;;2.97;1.60;;;12.90;99.90;;;;;;5025375;28;20258;-90
2020/12/22 12:28:52;;;;;;;1.53;1.40;;;12.80;99.90;;;;;;5025839;28;20224;-90
2020/12/22 12:31:21;;;;;;;2.10;1.60;;;12.90;99.90;;;;;;5026681;28;20182;-91
2020/12/22 12:33:47;;;;;;;2.33;1.67;;;12.80;99.90;;;;;;5018641;28;20190;-91
2020/12/22 12:36:13;;;;;;;2.80;1.60;;;12.80;99.90;;;;;;4984075;28;20213;-90
2020/12/22 12:38:40;;;;;;;2.03;1.63;;;12.70;99.90;;;;;;5025513;28;20185;-91
2020/12/22 12:41:09;;;;;;;1.60;1.50;;;12.70;99.90;;;;;;5024118;28;20175;-90
2020/12/22 12:43:35;;;;;;;1.60;1.50;;;12.70;99.90;;;;;;5025366;28;20222;-90
2020/12/22 12:46:01;;;;;;;2.67;1.80;;;12.70;99.90;;;;;;5023928;28;20182;-90
2020/12/22 12:48:26;;;;;;;1.63;1.53;;;12.80;99.90;;;;;;5016818;28;20192;-90
2020/12/22 12:50:52;;;;;;;1.67;1.57;;;12.80;99.90;;;;;;5020182;28;20229;-91
2020/12/22 12:53:18;;;;;;;1.40;1.40;;;12.80;99.90;;;;;;5024031;28;20235;-89